Time;durP1;ratioP1;P1;durP2;ratioP2;P2;SDS_P1;SDS_P2;PMS_P1;PMS_P2;Temp;Humidity;BMP_temperature;BMP_pressure;BME280_temperature;BME280_humidity;BME280_pressure;Samples;Min_cycle;Max_cycle;Signal;HPM_P1;HPM_P2
2022/12/17 13:15:46;;;;;;;83.4;47.4;;;;;;;-2.8;86.5;99340;;;;
2022/12/17 13:26:46;;;;;;;83.4;47.4;;;;;;;-2.7;86.9;99350;;;;
2022/12/17 13:37:46;;;;;;;83.1;40.3;;;;;;;-2.8;87;99360;;;;
2022/12/17 13:47:46;;;;;;;83.1;40.3;;;;;;;-2.8;88;99390;;;;
2022/12/17 13:57:46;;;;;;;83.1;40.3;;;;;;;-2.9;87.9;99400;;;;
2022/12/17 14:08:46;;;;;;;92.9;46.5;;;;;;;-2.9;88.4;99420;;;;
2022/12/17 14:18:46;;;;;;;92.9;46.5;;;;;;;-2.8;88.7;99440;;;;
2022/12/17 14:29:46;;;;;;;92.9;46.5;;;;;;;-2.9;88.7;99460;;;;
2022/12/17 14:39:46;;;;;;;81;39.4;;;;;;;-3;88.6;99470;;;;
2022/12/17 14:50:46;;;;;;;81;39.4;;;;;;;-3;89;99490;;;;
2022/12/17 15:00:46;;;;;;;80.4;39.1;;;;;;;-3;89.1;99510;;;;
2022/12/17 15:10:48;;;;;;;80.4;39.1;;;;;;;-3;89.6;99520;;;;
2022/12/17 15:20:46;;;;;;;80.4;39.1;;;;;;;-3;89.4;99530;;;;
2022/12/17 15:31:46;;;;;;;84.5;41.8;;;;;;;-3;89.2;99540;;;;
2022/12/17 15:51:46;;;;;;;84.5;41.8;;;;;;;-3;89.1;99560;;;;
2022/12/17 16:02:46;;;;;;;89.7;43.8;;;;;;;-2.9;89.1;99580;;;;
2022/12/17 16:12:46;;;;;;;89.7;43.8;;;;;;;-3;88.8;99590;;;;
2022/12/17 16:22:46;;;;;;;89.7;43.8;;;;;;;-3;88.5;99600;;;;
2022/12/17 16:33:47;;;;;;;91.6;46.8;;;;;;;-2.9;88.6;99620;;;;
2022/12/17 16:44:46;;;;;;;91.6;46.8;;;;;;;-2.9;89.6;99630;;;;
2022/12/17 16:54:47;;;;;;;91.6;46.8;;;;;;;-2.9;89.4;99640;;;;
2022/12/17 17:05:48;;;;;;;108;53.8;;;;;;;-2.9;89.2;99640;;;;
2022/12/17 17:16:46;;;;;;;108;53.8;;;;;;;-2.9;89;99670;;;;
2022/12/17 17:26:46;;;;;;;108;53.8;;;;;;;-3;88.9;99680;;;;
2022/12/17 17:36:46;;;;;;;88.1;46.9;;;;;;;-3;88.7;99700;;;;
2022/12/17 17:47:46;;;;;;;88.1;46.9;;;;;;;-3;88.9;99720;;;;
2022/12/17 17:58:46;;;;;;;88.1;46.9;;;;;;;-3.1;88.8;99730;;;;
2022/12/17 18:09:46;;;;;;;95.5;43;;;;;;;-3;88.9;99740;;;;
2022/12/17 18:20:46;;;;;;;95.5;43;;;;;;;-3.2;88.7;99750;;;;
2022/12/17 18:30:46;;;;;;;87.1;47.9;;;;;;;-3.2;88.9;99760;;;;
2022/12/17 18:40:46;;;;;;;87.1;47.9;;;;;;;-3.2;89;99780;;;;
2022/12/17 18:51:46;;;;;;;87.1;47.9;;;;;;;-3.2;88.7;99800;;;;
2022/12/17 19:01:46;;;;;;;88.4;40.9;;;;;;;-3.1;88.8;99820;;;;
2022/12/17 19:12:46;;;;;;;88.4;40.9;;;;;;;-3.3;88.6;99820;;;;
2022/12/17 19:23:46;;;;;;;88.4;40.9;;;;;;;-3.3;88.8;99830;;;;
2022/12/17 19:33:46;;;;;;;73.8;36.3;;;;;;;-3.4;88.7;99850;;;;
2022/12/17 19:43:46;;;;;;;73.8;36.3;;;;;;;-3.4;88.4;99860;;;;
2022/12/17 19:54:46;;;;;;;73.8;36.3;;;;;;;-3.4;88.5;99880;;;;
2022/12/17 20:05:46;;;;;;;74.7;35;;;;;;;-3.4;88.4;99890;;;;
2022/12/17 20:15:46;;;;;;;74.7;35;;;;;;;-3.3;88.4;99910;;;;
2022/12/17 20:25:48;;;;;;;74.7;35;;;;;;;-3.4;88;99940;;;;
2022/12/17 20:36:46;;;;;;;;;;;;;;;;;;;;;
2022/12/17 20:46:46;;;;;;;95.2;45.6;;;;;;;-3.7;88.4;99970;;;;
2022/12/17 20:57:46;;;;;;;95.2;45.6;;;;;;;-3.6;88.7;99990;;;;
2022/12/17 21:07:46;;;;;;;75.2;35.9;;;;;;;-3.7;88.4;100000;;;;
2022/12/17 21:17:46;;;;;;;75.2;35.9;;;;;;;-3.8;88.1;100010;;;;
2022/12/17 21:27:46;;;;;;;75.2;35.9;;;;;;;-3.9;88.3;100020;;;;
2022/12/17 21:38:46;;;;;;;69.8;34.1;;;;;;;-4;87.9;100030;;;;
2022/12/17 21:49:46;;;;;;;69.8;34.1;;;;;;;-4;87.9;100050;;;;
2022/12/17 21:59:46;;;;;;;59.1;27.7;;;;;;;-4.1;87.8;100070;;;;
2022/12/17 22:10:46;;;;;;;59.1;27.7;;;;;;;-4.2;87.6;100080;;;;
2022/12/17 22:21:46;;;;;;;59.1;27.7;;;;;;;-4.2;87.5;100090;;;;
2022/12/17 22:33:04;;;;;;;48;29.3;;;;;;;-4;87.3;100100;;;;
2022/12/17 22:43:46;;;;;;;48;29.3;;;;;;;-4.1;87.1;100110;;;;
2022/12/17 22:53:46;;;;;;;48;29.3;;;;;;;-4.1;86.9;100120;;;;
2022/12/17 23:03:46;;;;;;;38.8;19.5;;;;;;;-4.1;87;100130;;;;
2022/12/17 23:13:46;;;;;;;38.8;19.5;;;;;;;-4.1;87.2;100150;;;;
2022/12/17 23:24:47;;;;;;;38.8;19.5;;;;;;;-4.1;87;100150;;;;
2022/12/17 23:34:46;;;;;;;42.7;21.1;;;;;;;-4.1;86.6;100160;;;;
2022/12/17 23:44:46;;;;;;;42.7;21.1;;;;;;;-4.1;86.6;100180;;;;
2022/12/17 23:55:46;;;;;;;42.7;21.1;;;;;;;-4.1;86.5;100200;;;;
